Time;durP1;ratioP1;P1;durP2;ratioP2;P2;SDS_P1;SDS_P2;PMS_P1;PMS_P2;Temp;Humidity;BMP_temperature;BMP_pressure;BME280_temperature;BME280_humidity;BME280_pressure;Samples;Min_cycle;Max_cycle;Signal;HPM_P1;HPM_P2
2023/04/28 00:01:54;;;;;;;;;;;;;;;;;;5114060;28;2005;-40
2023/04/28 00:04:22;;;;;;;;;;;;;;;;;;5113778;28;1985;-39
2023/04/28 00:06:49;;;;;;;;;;;;;;;;;;5114421;28;2334;-41
2023/04/28 00:09:17;;;;;;;;;;;;;;;;;;5095805;28;2611;-44
2023/04/28 00:11:48;;;;;;;;;;;;;;;;;;5095904;28;2322;-40
2023/04/28 00:14:16;;;;;;;;;;;;;;;;;;5113794;28;1746;-40
2023/04/28 00:16:43;;;;;;;;;;;;;;;;;;5113746;28;1946;-43
2023/04/28 00:19:11;;;;;;;;;;;;;;;;;;5113698;28;1931;-41
2023/04/28 00:21:38;;;;;;;;;;;;;;;;;;5113597;28;1947;-40
2023/04/28 00:24:05;;;;;;;;;;;;;;;;;;5113896;28;1945;-40
2023/04/28 00:26:33;;;;;;;;;;;;;;;;;;5113743;28;2014;-40
2023/04/28 00:29:00;;;;;;;;;;;;;;;;;;5113535;28;2140;-46
2023/04/28 00:31:27;;;;;;;;;;;;;;;;;;5113468;28;2076;-40
2023/04/28 00:33:54;;;;;;;;;;;;;;;;;;5113483;28;1727;-40
2023/04/28 00:36:22;;;;;;;;;;;;;;;;;;5113707;28;1863;-40
2023/04/28 00:38:49;;;;;;;;;;;;;;;;;;5113671;28;1953;-40
2023/04/28 00:41:17;;;;;;;;;;;;;;;;;;5113246;28;2031;-41
2023/04/28 00:43:48;;;;;;;;;;;;;;;;;;5113310;28;1908;-40
2023/04/28 00:46:23;;;;;;;;;;;;;;;;;;5113194;28;1980;-40
2023/04/28 00:48:51;;;;;;;;;;;;;;;;;;5113413;28;2242;-40
2023/04/28 00:51:18;;;;;;;;;;;;;;;;;;5113152;28;2053;-40
2023/04/28 00:53:45;;;;;;;;;;;;;;;;;;5105608;28;2060;-40
2023/04/28 00:56:16;;;;;;;;;;;;;;;;;;5092732;28;1993;-40
2023/04/28 00:58:43;;;;;;;;;;;;;;;;;;5092487;28;1984;-40
2023/04/28 01:01:10;;;;;;;;;;;;;;;;;;5092627;28;2087;-41
2023/04/28 01:03:38;;;;;;;;;;;;;;;;;;5092376;28;2031;-44
2023/04/28 01:06:07;;;;;;;;;;;;;;;;;;5074618;28;1909;-39
2023/04/28 01:08:36;;;;;;;;;;;;;;;;;;5087749;28;2023;-39
2023/04/28 01:11:06;;;;;;;;;;;;;;;;;;5094324;28;2221;-39
2023/04/28 01:13:51;;;;;;;;;;;;;;;;;;5113212;28;2065;-39
2023/04/28 01:16:19;;;;;;;;;;;;;;;;;;5111497;28;1925;-39
2023/04/28 01:18:47;;;;;;;;;;;;;;;;;;5094375;28;1898;-40
2023/04/28 01:21:14;;;;;;;;;;;;;;;;;;5094253;28;2006;-39
2023/04/28 01:23:45;;;;;;;;;;;;;;;;;;5112487;28;1934;-39
2023/04/28 01:26:12;;;;;;;;;;;;;;;;;;5112671;28;2089;-40
2023/04/28 01:28:39;;;;;;;;;;;;;;;;;;5112516;28;2066;-40
2023/04/28 01:31:09;;;;;;;;;;;;;;;;;;5094383;28;1811;-40
2023/04/28 01:33:37;;;;;;;;;;;;;;;;;;5094094;28;1963;-40
2023/04/28 01:36:04;;;;;;;;;;;;;;;;;;5112373;28;1884;-39
2023/04/28 01:38:31;;;;;;;;;;;;;;;;;;5077337;28;1782;-45
2023/04/28 01:40:59;;;;;;;;;;;;;;;;;;5112333;28;1870;-40
2023/04/28 01:43:26;;;;;;;;;;;;;;;;;;5112454;28;2199;-39
2023/04/28 01:45:53;;;;;;;;;;;;;;;;;;5112117;28;2098;-40
2023/04/28 01:48:20;;;;;;;;;;;;;;;;;;5112373;28;2005;-39
2023/04/28 01:50:50;;;;;;;;;;;;;;;;;;5112102;28;1996;-39
2023/04/28 01:53:20;;;;;;;;;;;;;;;;;;5112097;28;1920;-39
2023/04/28 01:55:48;;;;;;;;;;;;;;;;;;5093807;28;1764;-39
2023/04/28 01:58:16;;;;;;;;;;;;;;;;;;5093963;28;2004;-39
2023/04/28 02:00:43;;;;;;;;;;;;;;;;;;5092401;28;2004;-38
2023/04/28 02:03:12;;;;;;;;;;;;;;;;;;5091302;28;1913;-38
2023/04/28 02:05:39;;;;;;;;;;;;;;;;;;5091587;28;2057;-39
2023/04/28 02:08:07;;;;;;;;;;;;;;;;;;5091751;28;1815;-44
2023/04/28 02:10:34;;;;;;;;;;;;;;;;;;5073258;28;2040;-37
2023/04/28 02:13:01;;;;;;;;;;;;;;;;;;5091580;28;1817;-39
2023/04/28 02:15:29;;;;;;;;;;;;;;;;;;5073522;28;1996;-39
2023/04/28 02:17:56;;;;;;;;;;;;;;;;;;5102340;28;1932;-39
2023/04/28 02:20:25;;;;;;;;;;;;;;;;;;5111212;28;1832;-38
2023/04/28 02:22:53;;;;;;;;;;;;;;;;;;5111596;28;1972;-39
2023/04/28 02:25:21;;;;;;;;;;;;;;;;;;5112002;28;1898;-39
2023/04/28 02:27:48;;;;;;;;;;;;;;;;;;5111595;28;2178;-42
2023/04/28 02:30:15;;;;;;;;;;;;;;;;;;5111783;28;1840;-40
2023/04/28 02:32:42;;;;;;;;;;;;;;;;;;5111683;28;1775;-38
2023/04/28 02:35:09;;;;;;;;;;;;;;;;;;5111730;28;1963;-38
2023/04/28 02:37:37;;;;;;;;;;;;;;;;;;5111758;28;2026;-39
2023/04/28 02:40:04;;;;;;;;;;;;;;;;;;5111467;28;1833;-39
2023/04/28 02:42:31;;;;;;;;;;;;;;;;;;5089973;28;2495;-40
2023/04/28 02:44:58;;;;;;;;;;;;;;;;;;5091329;28;2008;-39
2023/04/28 02:47:26;;;;;;;;;;;;;;;;;;5091234;28;2179;-39
2023/04/28 02:49:53;;;;;;;;;;;;;;;;;;5091390;28;2025;-38
2023/04/28 02:52:20;;;;;;;;;;;;;;;;;;5090110;28;1944;-39
2023/04/28 02:54:48;;;;;;;;;;;;;;;;;;5079121;28;1926;-39
2023/04/28 02:57:16;;;;;;;;;;;;;;;;;;5072956;28;1903;-41
2023/04/28 02:59:43;;;;;;;;;;;;;;;;;;5109730;28;2165;-44
2023/04/28 03:02:11;;;;;;;;;;;;;;;;;;5089345;28;1986;-44
2023/04/28 03:04:38;;;;;;;;;;;;;;;;;;5091028;28;1796;-42
2023/04/28 03:07:06;;;;;;;;;;;;;;;;;;5090894;28;1931;-43
2023/04/28 03:09:33;;;;;;;;;;;;;;;;;;5091018;28;2031;-39
2023/04/28 03:12:02;;;;;;;;;;;;;;;;;;5091168;28;1947;-39
2023/04/28 03:14:31;;;;;;;;;;;;;;;;;;5074328;28;2140;-46
2023/04/28 03:16:58;;;;;;;;;;;;;;;;;;5093312;28;1938;-38
2023/04/28 03:19:26;;;;;;;;;;;;;;;;;;5111352;28;1943;-39
2023/04/28 03:21:53;;;;;;;;;;;;;;;;;;5111251;28;1972;-38
2023/04/28 03:24:20;;;;;;;;;;;;;;;;;;5092533;28;2005;-38
2023/04/28 03:26:50;;;;;;;;;;;;;;;;;;5088733;28;2161;-45
2023/04/28 03:29:17;;;;;;;;;;;;;;;;;;5072944;28;1992;-39
2023/04/28 03:31:44;;;;;;;;;;;;;;;;;;5092967;28;1996;-39
2023/04/28 03:34:11;;;;;;;;;;;;;;;;;;5094258;28;2063;-39
2023/04/28 03:36:38;;;;;;;;;;;;;;;;;;5075993;28;1974;-39
2023/04/28 03:39:13;;;;;;;;;;;;;;;;;;5075963;28;1955;-39
2023/04/28 03:41:41;;;;;;;;;;;;;;;;;;5075980;28;1874;-38
2023/04/28 03:44:31;;;;;;;;;;;;;;;;;;5088617;28;1963;-38
2023/04/28 03:47:00;;;;;;;;;;;;;;;;;;5075800;28;1888;-39
2023/04/28 03:49:27;;;;;;;;;;;;;;;;;;5075952;28;2084;-36
2023/04/28 03:51:54;;;;;;;;;;;;;;;;;;5075813;28;2109;-40
2023/04/28 03:54:22;;;;;;;;;;;;;;;;;;5092433;28;2136;-37
2023/04/28 03:56:49;;;;;;;;;;;;;;;;;;5093984;28;2065;-38
2023/04/28 03:59:16;;;;;;;;;;;;;;;;;;5075661;28;1590;-38
2023/04/28 04:01:44;;;;;;;;;;;;;;;;;;5093629;28;2189;-39
2023/04/28 04:04:11;;;;;;;;;;;;;;;;;;5093697;28;2061;-38
2023/04/28 04:06:38;;;;;;;;;;;;;;;;;;5075626;28;1910;-39
2023/04/28 04:09:06;;;;;;;;;;;;;;;;;;5075838;28;2474;-38
2023/04/28 04:11:34;;;;;;;;;;;;;;;;;;5075694;28;1989;-39
2023/04/28 04:14:01;;;;;;;;;;;;;;;;;;5075491;28;2003;-41
2023/04/28 04:16:30;;;;;;;;;;;;;;;;;;5075184;28;2094;-41
2023/04/28 04:18:58;;;;;;;;;;;;;;;;;;5075383;28;1960;-58
2023/04/28 04:21:35;;;;;;;;;;;;;;;;;;5093838;28;1969;-49
2023/04/28 04:24:03;;;;;;;;;;;;;;;;;;5075038;28;2047;-41
2023/04/28 04:26:30;;;;;;;;;;;;;;;;;;5075083;28;2076;-43
2023/04/28 04:28:58;;;;;;;;;;;;;;;;;;5074909;28;2472;-38
2023/04/28 04:31:25;;;;;;;;;;;;;;;;;;5093156;28;2053;-39
2023/04/28 04:33:52;;;;;;;;;;;;;;;;;;5075045;28;2058;-39
2023/04/28 04:36:20;;;;;;;;;;;;;;;;;;5063375;28;10558;-59
2023/04/28 04:38:49;;;;;;;;;;;;;;;;;;5054828;28;2164;-48
2023/04/28 04:41:19;;;;;;;;;;;;;;;;;;5054628;28;2073;-59
2023/04/28 04:43:48;;;;;;;;;;;;;;;;;;5054138;28;2053;-42
2023/04/28 04:46:19;;;;;;;;;;;;;;;;;;5088128;28;2101;-38
2023/04/28 04:48:46;;;;;;;;;;;;;;;;;;5072944;28;2070;-57
2023/04/28 04:51:14;;;;;;;;;;;;;;;;;;5072611;28;2150;-48
2023/04/28 04:53:41;;;;;;;;;;;;;;;;;;5057920;28;1967;-39
2023/04/28 04:56:09;;;;;;;;;;;;;;;;;;5072653;28;1944;-39
2023/04/28 04:58:36;;;;;;;;;;;;;;;;;;5071440;28;2059;-53
2023/04/28 05:01:32;;;;;;;;;;;;;;;;;;5071196;28;1988;-39
2023/04/28 05:03:59;;;;;;;;;;;;;;;;;;5085647;28;2130;-40
2023/04/28 05:06:27;;;;;;;;;;;;;;;;;;5092491;28;1970;-38
2023/04/28 05:08:57;;;;;;;;;;;;;;;;;;5074362;28;2128;-38
2023/04/28 05:11:25;;;;;;;;;;;;;;;;;;5074598;28;1955;-39
2023/04/28 05:13:52;;;;;;;;;;;;;;;;;;5092386;28;1959;-39
2023/04/28 05:16:19;;;;;;;;;;;;;;;;;;5074175;28;1986;-42
2023/04/28 05:19:09;;;;;;;;;;;;;;;;;;5074302;28;1939;-39
2023/04/28 05:21:36;;;;;;;;;;;;;;;;;;5092438;28;1850;-39
2023/04/28 05:24:04;;;;;;;;;;;;;;;;;;5073900;28;2009;-60
2023/04/28 05:26:31;;;;;;;;;;;;;;;;;;5073983;28;1951;-39
2023/04/28 05:29:05;;;;;;;;;;;;;;;;;;5073842;28;1932;-44
2023/04/28 05:31:32;;;;;;;;;;;;;;;;;;5077371;28;2042;-39
2023/04/28 05:33:59;;;;;;;;;;;;;;;;;;5053847;28;2059;-39
2023/04/28 05:36:27;;;;;;;;;;;;;;;;;;5053804;28;1994;-39
2023/04/28 05:38:54;;;;;;;;;;;;;;;;;;5053806;28;1929;-39
2023/04/28 05:41:22;;;;;;;;;;;;;;;;;;5071696;28;2190;-46
2023/04/28 05:43:50;;;;;;;;;;;;;;;;;;5053646;28;2048;-42
2023/04/28 05:46:17;;;;;;;;;;;;;;;;;;5053395;28;2174;-56
2023/04/28 05:48:57;;;;;;;;;;;;;;;;;;5058758;28;1984;-39
2023/04/28 05:51:26;;;;;;;;;;;;;;;;;;5073490;28;1948;-45
2023/04/28 05:53:53;;;;;;;;;;;;;;;;;;5090884;28;1915;-38
2023/04/28 05:56:20;;;;;;;;;;;;;;;;;;5073206;28;2158;-39
2023/04/28 05:58:49;;;;;;;;;;;;;;;;;;5073349;28;2061;-38
2023/04/28 06:01:16;;;;;;;;;;;;;;;;;;5091729;28;1995;-38
2023/04/28 06:03:45;;;;;;;;;;;;;;;;;;5073288;28;2016;-39
2023/04/28 06:06:13;;;;;;;;;;;;;;;;;;5073645;28;1941;-39
2023/04/28 06:08:41;;;;;;;;;;;;;;;;;;5073741;28;1954;-39
2023/04/28 06:11:08;;;;;;;;;;;;;;;;;;5073273;28;1966;-53
2023/04/28 06:13:35;;;;;;;;;;;;;;;;;;5091482;28;1975;-38
2023/04/28 06:16:02;;;;;;;;;;;;;;;;;;5091464;28;1774;-39
2023/04/28 06:18:33;;;;;;;;;;;;;;;;;;5090966;28;2178;-38
2023/04/28 06:21:01;;;;;;;;;;;;;;;;;;5073171;28;1896;-39
2023/04/28 06:23:29;;;;;;;;;;;;;;;;;;5072993;28;1995;-39
2023/04/28 06:25:57;;;;;;;;;;;;;;;;;;5073338;28;2088;-38
2023/04/28 06:28:24;;;;;;;;;;;;;;;;;;5091433;28;1954;-40
2023/04/28 06:30:52;;;;;;;;;;;;;;;;;;5091376;28;2102;-39
2023/04/28 06:33:19;;;;;;;;;;;;;;;;;;5073178;28;2057;-46
2023/04/28 06:35:49;;;;;;;;;;;;;;;;;;5091219;28;2127;-39
2023/04/28 06:38:17;;;;;;;;;;;;;;;;;;5073058;28;2103;-47
2023/04/28 06:40:44;;;;;;;;;;;;;;;;;;5091618;28;2071;-51
2023/04/28 06:43:12;;;;;;;;;;;;;;;;;;5073360;28;2147;-39
2023/04/28 06:45:45;;;;;;;;;;;;;;;;;;5091200;28;2022;-45
2023/04/28 06:48:13;;;;;;;;;;;;;;;;;;5091331;28;2028;-39
2023/04/28 06:50:40;;;;;;;;;;;;;;;;;;5090996;28;2088;-38
2023/04/28 06:53:10;;;;;;;;;;;;;;;;;;5070604;28;1922;-41
2023/04/28 06:55:37;;;;;;;;;;;;;;;;;;5070927;28;1958;-39
2023/04/28 06:58:04;;;;;;;;;;;;;;;;;;5070693;28;2050;-39
2023/04/28 07:00:33;;;;;;;;;;;;;;;;;;5070797;28;1841;-38
2023/04/28 07:03:00;;;;;;;;;;;;;;;;;;5070477;28;1946;-39
2023/04/28 07:05:29;;;;;;;;;;;;;;;;;;5071338;28;2144;-39
2023/04/28 07:07:59;;;;;;;;;;;;;;;;;;5074699;28;2025;-39
2023/04/28 07:10:26;;;;;;;;;;;;;;;;;;5074641;28;2090;-39
2023/04/28 07:12:53;;;;;;;;;;;;;;;;;;5074504;28;1755;-38
2023/04/28 07:15:22;;;;;;;;;;;;;;;;;;5074385;28;1925;-39
2023/04/28 07:17:50;;;;;;;;;;;;;;;;;;5074281;28;2055;-39
2023/04/28 07:20:17;;;;;;;;;;;;;;;;;;5074527;28;2131;-39
2023/04/28 07:22:44;;;;;;;;;;;;;;;;;;5074448;28;1959;-38
2023/04/28 07:25:11;;;;;;;;;;;;;;;;;;5074204;28;1959;-38
2023/04/28 07:27:39;;;;;;;;;;;;;;;;;;5073975;28;1909;-39
2023/04/28 07:30:06;;;;;;;;;;;;;;;;;;5074096;28;1936;-38
2023/04/28 07:32:53;;;;;;;;;;;;;;;;;;5074189;28;2103;-38
2023/04/28 07:35:21;;;;;;;;;;;;;;;;;;5074147;28;1967;-38
2023/04/28 07:37:48;;;;;;;;;;;;;;;;;;5074100;28;2024;-38
2023/04/28 07:40:16;;;;;;;;;;;;;;;;;;5074258;28;2121;-38
2023/04/28 07:42:44;;;;;;;;;;;;;;;;;;5073699;28;2200;-38
2023/04/28 07:45:11;;;;;;;;;;;;;;;;;;5073771;28;1961;-38
2023/04/28 07:47:38;;;;;;;;;;;;;;;;;;5073537;28;1871;-38
2023/04/28 07:50:06;;;;;;;;;;;;;;;;;;5073823;28;1978;-39
2023/04/28 07:52:33;;;;;;;;;;;;;;;;;;5073757;28;2109;-38
2023/04/28 07:55:01;;;;;;;;;;;;;;;;;;5091300;28;1920;-38
2023/04/28 07:57:29;;;;;;;;;;;;;;;;;;5093718;28;2150;-37
2023/04/28 07:59:56;;;;;;;;;;;;;;;;;;5093878;28;2041;-37
2023/04/28 08:02:24;;;;;;;;;;;;;;;;;;5093738;28;2034;-38
2023/04/28 08:04:52;;;;;;;;;;;;;;;;;;5093945;28;1914;-38
2023/04/28 08:07:19;;;;;;;;;;;;;;;;;;5093824;28;1972;-38
2023/04/28 08:09:47;;;;;;;;;;;;;;;;;;5093665;28;2033;-38
2023/04/28 08:12:14;;;;;;;;;;;;;;;;;;5093518;28;2073;-38
2023/04/28 08:14:41;;;;;;;;;;;;;;;;;;5093670;28;1984;-39
2023/04/28 08:17:08;;;;;;;;;;;;;;;;;;5092631;28;2080;-39
2023/04/28 08:19:36;;;;;;;;;;;;;;;;;;5074066;28;1957;-38
2023/04/28 08:22:05;;;;;;;;;;;;;;;;;;5073259;28;2067;-38
2023/04/28 08:24:37;;;;;;;;;;;;;;;;;;5072980;28;2041;-38
2023/04/28 08:27:05;;;;;;;;;;;;;;;;;;5073082;28;1774;-38
2023/04/28 08:29:32;;;;;;;;;;;;;;;;;;5072954;28;1946;-38
2023/04/28 08:32:03;;;;;;;;;;;;;;;;;;5072990;28;2047;-38
2023/04/28 08:34:31;;;;;;;;;;;;;;;;;;5072858;28;1986;-39
2023/04/28 08:36:59;;;;;;;;;;;;;;;;;;5072739;28;1999;-38
2023/04/28 08:39:26;;;;;;;;;;;;;;;;;;5072783;28;2234;-38
2023/04/28 08:41:55;;;;;;;;;;;;;;;;;;5072971;28;1928;-37
2023/04/28 08:44:22;;;;;;;;;;;;;;;;;;5073335;28;2024;-38
2023/04/28 08:46:51;;;;;;;;;;;;;;;;;;5073123;28;2159;-38
2023/04/28 08:49:22;;;;;;;;;;;;;;;;;;5073321;28;2028;-38
2023/04/28 08:51:51;;;;;;;;;;;;;;;;;;5073286;28;2061;-38
2023/04/28 08:54:19;;;;;;;;;;;;;;;;;;5084923;28;1980;-38
2023/04/28 08:56:53;;;;;;;;;;;;;;;;;;5093208;28;1983;-39
2023/04/28 08:59:20;;;;;;;;;;;;;;;;;;5092748;28;1946;-38
2023/04/28 09:01:48;;;;;;;;;;;;;;;;;;5092347;28;1985;-40
2023/04/28 09:04:19;;;;;;;;;;;;;;;;;;5074101;28;2218;-47
2023/04/28 09:06:49;;;;;;;;;;;;;;;;;;5092528;28;2204;-46
2023/04/28 09:09:20;;;;;;;;;;;;;;;;;;5092509;28;2141;-60
2023/04/28 09:11:51;;;;;;;;;;;;;;;;;;5092467;28;1900;-49
2023/04/28 09:14:18;;;;;;;;;;;;;;;;;;5092325;28;2202;-38
2023/04/28 09:16:45;;;;;;;;;;;;;;;;;;5092388;28;1941;-38
2023/04/28 09:19:13;;;;;;;;;;;;;;;;;;5092334;28;2030;-39
2023/04/28 09:21:47;;;;;;;;;;;;;;;;;;5092123;28;2070;-38
2023/04/28 09:24:25;;;;;;;;;;;;;;;;;;5092209;28;1983;-38
2023/04/28 09:26:52;;;;;;;;;;;;;;;;;;5092213;28;1862;-38
2023/04/28 09:29:21;;;;;;;;;;;;;;;;;;5092268;28;1912;-39
2023/04/28 09:31:48;;;;;;;;;;;;;;;;;;5091968;28;1979;-38
2023/04/28 09:34:16;;;;;;;;;;;;;;;;;;5092383;28;2037;-38
2023/04/28 09:36:43;;;;;;;;;;;;;;;;;;5091871;28;2010;-39
2023/04/28 09:39:11;;;;;;;;;;;;;;;;;;5092028;28;1953;-38
2023/04/28 09:41:39;;;;;;;;;;;;;;;;;;5091955;28;2262;-44
2023/04/28 09:44:13;;;;;;;;;;;;;;;;;;5091607;28;2088;-40
2023/04/28 09:46:43;;;;;;;;;;;;;;;;;;5091646;28;1742;-38
2023/04/28 09:49:12;;;;;;;;;;;;;;;;;;5091787;28;2178;-38
2023/04/28 09:51:42;;;;;;;;;;;;;;;;;;5091738;28;2000;-38
2023/04/28 09:54:10;;;;;;;;;;;;;;;;;;5080813;28;2114;-37
2023/04/28 09:56:40;;;;;;;;;;;;;;;;;;5071677;28;2058;-39
2023/04/28 09:59:07;;;;;;;;;;;;;;;;;;5071351;28;1999;-38
2023/04/28 10:01:39;;;;;;;;;;;;;;;;;;5071425;28;1943;-38
2023/04/28 10:04:07;;;;;;;;;;;;;;;;;;5071156;28;2010;-38
2023/04/28 10:06:35;;;;;;;;;;;;;;;;;;5071189;28;1967;-38
2023/04/28 10:09:04;;;;;;;;;;;;;;;;;;5071300;28;1702;-37
2023/04/28 10:11:32;;;;;;;;;;;;;;;;;;5071343;28;2006;-38
2023/04/28 10:13:59;;;;;;;;;;;;;;;;;;5071069;28;1805;-38
2023/04/28 10:16:28;;;;;;;;;;;;;;;;;;5071448;28;1935;-38
2023/04/28 10:18:58;;;;;;;;;;;;;;;;;;5071117;28;1841;-38
2023/04/28 10:21:25;;;;;;;;;;;;;;;;;;5071576;28;2062;-38
2023/04/28 10:24:05;;;;;;;;;;;;;;;;;;5070933;28;2164;-38
2023/04/28 10:26:55;;;;;;;;;;;;;;;;;;5071055;28;1956;-38
2023/04/28 10:29:24;;;;;;;;;;;;;;;;;;5070936;28;2098;-39
2023/04/28 10:32:09;;;;;;;;;;;;;;;;;;5071051;28;2030;-38
2023/04/28 10:34:37;;;;;;;;;;;;;;;;;;5071121;28;2261;-38
2023/04/28 10:37:04;;;;;;;;;;;;;;;;;;5071050;28;2047;-38
2023/04/28 10:39:32;;;;;;;;;;;;;;;;;;5071077;28;1914;-38
2023/04/28 10:41:59;;;;;;;;;;;;;;;;;;5073880;28;2011;-38
2023/04/28 10:44:29;;;;;;;;;;;;;;;;;;5075234;28;1908;-38
2023/04/28 10:47:01;;;;;;;;;;;;;;;;;;5074997;28;2144;-38
2023/04/28 10:49:48;;;;;;;;;;;;;;;;;;5075150;28;1877;-38
2023/04/28 10:52:35;;;;;;;;;;;;;;;;;;5074784;28;1987;-38
2023/04/28 10:55:22;;;;;;;;;;;;;;;;;;5092699;28;1953;-37
2023/04/28 10:58:07;;;;;;;;;;;;;;;;;;5095009;28;1552;-38
2023/04/28 11:00:35;;;;;;;;;;;;;;;;;;5094922;28;2033;-38
2023/04/28 11:03:02;;;;;;;;;;;;;;;;;;5094907;28;1797;-38
2023/04/28 11:05:31;;;;;;;;;;;;;;;;;;5094861;28;2154;-39
2023/04/28 11:08:17;;;;;;;;;;;;;;;;;;5095000;28;1900;-38
2023/04/28 11:11:03;;;;;;;;;;;;;;;;;;5094845;28;1941;-38
2023/04/28 11:13:33;;;;;;;;;;;;;;;;;;5094898;28;2152;-51
2023/04/28 11:16:05;;;;;;;;;;;;;;;;;;5095042;28;1983;-43
2023/04/28 11:18:58;;;;;;;;;;;;;;;;;;5094867;28;2033;-42
2023/04/28 11:21:27;;;;;;;;;;;;;;;;;;5091352;28;1836;-51
2023/04/28 11:23:54;;;;;;;;;;;;;;;;;;5094507;28;1968;-38
2023/04/28 11:26:22;;;;;;;;;;;;;;;;;;5094435;28;1902;-39
2023/04/28 11:28:57;;;;;;;;;;;;;;;;;;5094407;28;2156;-38
2023/04/28 11:31:27;;;;;;;;;;;;;;;;;;5094298;28;2043;-38
2023/04/28 11:34:15;;;;;;;;;;;;;;;;;;5094233;28;1931;-38
2023/04/28 11:36:42;;;;;;;;;;;;;;;;;;5093254;28;2088;-38
2023/04/28 11:39:12;;;;;;;;;;;;;;;;;;5094261;28;1913;-38
2023/04/28 11:41:40;;;;;;;;;;;;;;;;;;5094221;28;2021;-38
2023/04/28 11:44:18;;;;;;;;;;;;;;;;;;5093928;28;2370;-38
2023/04/28 11:46:49;;;;;;;;;;;;;;;;;;5093866;28;1878;-37
2023/04/28 11:49:17;;;;;;;;;;;;;;;;;;5093941;28;1871;-38
2023/04/28 11:51:47;;;;;;;;;;;;;;;;;;5093832;28;1725;-38
2023/04/28 11:54:19;;;;;;;;;;;;;;;;;;5082529;28;1920;-38
2023/04/28 11:56:46;;;;;;;;;;;;;;;;;;5073739;28;1791;-38
2023/04/28 11:59:14;;;;;;;;;;;;;;;;;;5073797;28;2008;-37
2023/04/28 12:01:53;;;;;;;;;;;;;;;;;;5073603;28;1887;-38
2023/04/28 12:04:40;;;;;;;;;;;;;;;;;;5073381;28;2022;-38
2023/04/28 12:07:09;;;;;;;;;;;;;;;;;;5073742;28;2008;-38
2023/04/28 12:09:38;;;;;;;;;;;;;;;;;;5073543;28;1950;-38
2023/04/28 12:12:06;;;;;;;;;;;;;;;;;;5073678;28;2148;-46
2023/04/28 12:14:56;;;;;;;;;;;;;;;;;;5073310;28;1905;-38
2023/04/28 12:17:29;;;;;;;;;;;;;;;;;;5073131;28;2087;-39
2023/04/28 12:19:57;;;;;;;;;;;;;;;;;;5073148;28;1855;-38
2023/04/28 12:22:25;;;;;;;;;;;;;;;;;;5072992;28;2146;-39
2023/04/28 12:25:08;;;;;;;;;;;;;;;;;;5073063;28;2055;-43
2023/04/28 12:27:39;;;;;;;;;;;;;;;;;;5073326;28;1988;-51
2023/04/28 12:30:19;;;;;;;;;;;;;;;;;;5073193;28;2032;-39
2023/04/28 12:32:47;;;;;;;;;;;;;;;;;;5073053;28;1934;-39
2023/04/28 12:35:14;;;;;;;;;;;;;;;;;;5072909;28;1996;-41
2023/04/28 12:37:45;;;;;;;;;;;;;;;;;;5072888;28;1938;-39
2023/04/28 12:40:13;;;;;;;;;;;;;;;;;;5072917;28;2083;-47
2023/04/28 12:42:40;;;;;;;;;;;;;;;;;;5072596;28;1967;-44
2023/04/28 12:45:08;;;;;;;;;;;;;;;;;;5073015;28;2128;-56
2023/04/28 12:47:36;;;;;;;;;;;;;;;;;;5072178;28;1957;-49
2023/04/28 12:50:04;;;;;;;;;;;;;;;;;;5072704;28;1930;-41
2023/04/28 12:52:34;;;;;;;;;;;;;;;;;;5072608;28;1913;-50
2023/04/28 12:55:02;;;;;;;;;;;;;;;;;;5090910;28;1838;-39
2023/04/28 12:57:29;;;;;;;;;;;;;;;;;;5091774;28;1986;-40
2023/04/28 12:59:56;;;;;;;;;;;;;;;;;;5092667;28;1815;-38
2023/04/28 13:02:23;;;;;;;;;;;;;;;;;;5092715;28;2179;-39
2023/04/28 13:04:51;;;;;;;;;;;;;;;;;;5092119;28;1977;-39
2023/04/28 13:07:19;;;;;;;;;;;;;;;;;;5092597;28;2112;-41
2023/04/28 13:09:46;;;;;;;;;;;;;;;;;;5092378;28;1859;-38
2023/04/28 13:12:14;;;;;;;;;;;;;;;;;;5092610;28;1757;-45
2023/04/28 13:14:41;;;;;;;;;;;;;;;;;;5092195;28;1952;-39
2023/04/28 13:17:09;;;;;;;;;;;;;;;;;;5092607;28;1843;-51
2023/04/28 13:19:38;;;;;;;;;;;;;;;;;;5092445;28;2256;-40
2023/04/28 13:22:05;;;;;;;;;;;;;;;;;;5092450;28;1920;-53
2023/04/28 13:24:32;;;;;;;;;;;;;;;;;;5092007;28;2016;-44
2023/04/28 13:27:01;;;;;;;;;;;;;;;;;;5092162;28;2070;-55
2023/04/28 13:29:28;;;;;;;;;;;;;;;;;;5092219;28;2093;-50
2023/04/28 13:31:55;;;;;;;;;;;;;;;;;;5091436;28;1948;-56
2023/04/28 13:34:23;;;;;;;;;;;;;;;;;;5092093;28;1950;-61
2023/04/28 13:36:52;;;;;;;;;;;;;;;;;;5091941;28;1977;-61
2023/04/28 13:39:20;;;;;;;;;;;;;;;;;;5091945;28;2085;-39
2023/04/28 13:41:48;;;;;;;;;;;;;;;;;;5091819;28;1800;-49
2023/04/28 13:44:15;;;;;;;;;;;;;;;;;;5091349;28;1943;-45
2023/04/28 13:46:42;;;;;;;;;;;;;;;;;;5091525;28;2150;-43
2023/04/28 13:49:10;;;;;;;;;;;;;;;;;;5091923;28;2087;-60
2023/04/28 13:51:37;;;;;;;;;;;;;;;;;;5091783;28;1883;-39
2023/04/28 13:54:07;;;;;;;;;;;;;;;;;;5091658;28;1918;-39
2023/04/28 13:56:35;;;;;;;;;;;;;;;;;;5091656;28;1909;-40
2023/04/28 13:59:02;;;;;;;;;;;;;;;;;;5091927;28;1895;-59
2023/04/28 14:01:30;;;;;;;;;;;;;;;;;;5092133;28;2158;-60
2023/04/28 14:03:57;;;;;;;;;;;;;;;;;;5091508;28;1987;-38
2023/04/28 14:06:26;;;;;;;;;;;;;;;;;;5091697;28;2062;-38
2023/04/28 14:08:53;;;;;;;;;;;;;;;;;;5091451;28;1967;-39
2023/04/28 14:11:21;;;;;;;;;;;;;;;;;;5091535;28;1770;-47
2023/04/28 14:13:48;;;;;;;;;;;;;;;;;;5091342;28;2097;-39
2023/04/28 14:16:15;;;;;;;;;;;;;;;;;;5090533;28;1737;-39
2023/04/28 14:18:42;;;;;;;;;;;;;;;;;;5091445;28;2098;-46
2023/04/28 14:21:10;;;;;;;;;;;;;;;;;;5091582;28;2022;-41
2023/04/28 14:23:38;;;;;;;;;;;;;;;;;;5091482;28;1950;-47
2023/04/28 14:26:05;;;;;;;;;;;;;;;;;;5091093;28;2229;-38
2023/04/28 14:28:32;;;;;;;;;;;;;;;;;;5091182;28;1835;-44
2023/04/28 14:31:02;;;;;;;;;;;;;;;;;;5091161;28;1957;-39
2023/04/28 14:33:29;;;;;;;;;;;;;;;;;;5091475;28;1942;-49
2023/04/28 14:35:56;;;;;;;;;;;;;;;;;;5091192;28;2119;-38
2023/04/28 14:38:23;;;;;;;;;;;;;;;;;;5091417;28;2161;-39
2023/04/28 14:40:50;;;;;;;;;;;;;;;;;;5091273;28;1928;-39
2023/04/28 14:43:18;;;;;;;;;;;;;;;;;;5091204;28;2054;-51
2023/04/28 14:45:45;;;;;;;;;;;;;;;;;;5091117;28;1909;-38
2023/04/28 14:48:14;;;;;;;;;;;;;;;;;;5091222;28;1822;-38
2023/04/28 14:50:45;;;;;;;;;;;;;;;;;;5091273;28;2183;-39
2023/04/28 14:53:12;;;;;;;;;;;;;;;;;;5088756;28;1946;-38
2023/04/28 14:55:39;;;;;;;;;;;;;;;;;;5070965;28;2146;-39
2023/04/28 14:58:06;;;;;;;;;;;;;;;;;;5072981;28;2034;-38
2023/04/28 15:00:34;;;;;;;;;;;;;;;;;;5091039;28;1989;-39
2023/04/28 15:03:01;;;;;;;;;;;;;;;;;;5091012;28;1879;-38
2023/04/28 15:05:28;;;;;;;;;;;;;;;;;;5091035;28;1953;-39
2023/04/28 15:07:55;;;;;;;;;;;;;;;;;;5090922;28;2177;-38
2023/04/28 15:10:22;;;;;;;;;;;;;;;;;;5090748;28;1817;-38
2023/04/28 15:12:50;;;;;;;;;;;;;;;;;;5090684;28;2015;-39
2023/04/28 15:15:17;;;;;;;;;;;;;;;;;;5090947;28;2003;-37
2023/04/28 15:17:44;;;;;;;;;;;;;;;;;;5091109;28;1907;-39
2023/04/28 15:20:11;;;;;;;;;;;;;;;;;;5090746;28;2211;-41
2023/04/28 15:22:39;;;;;;;;;;;;;;;;;;5090829;28;2056;-38
2023/04/28 15:25:07;;;;;;;;;;;;;;;;;;5090612;28;1988;-43
2023/04/28 15:27:36;;;;;;;;;;;;;;;;;;5092855;28;1897;-39
2023/04/28 15:30:04;;;;;;;;;;;;;;;;;;5094467;28;2045;-47
2023/04/28 15:32:31;;;;;;;;;;;;;;;;;;5094251;28;2030;-39
2023/04/28 15:34:59;;;;;;;;;;;;;;;;;;5094378;28;1888;-41
2023/04/28 15:37:40;;;;;;;;;;;;;;;;;;5094118;28;1908;-43
2023/04/28 15:40:11;;;;;;;;;;;;;;;;;;5093588;28;2105;-43
2023/04/28 15:42:47;;;;;;;;;;;;;;;;;;5094297;28;2024;-39
2023/04/28 15:45:15;;;;;;;;;;;;;;;;;;5094155;28;1902;-39
2023/04/28 15:47:45;;;;;;;;;;;;;;;;;;5093977;28;1871;-39
2023/04/28 15:50:13;;;;;;;;;;;;;;;;;;5093975;28;1916;-40
2023/04/28 15:52:44;;;;;;;;;;;;;;;;;;5093742;28;1930;-45
2023/04/28 15:55:13;;;;;;;;;;;;;;;;;;5074362;28;2037;-48
2023/04/28 15:57:40;;;;;;;;;;;;;;;;;;5073770;28;1835;-44
2023/04/28 16:00:08;;;;;;;;;;;;;;;;;;5073597;28;2406;-39
2023/04/28 16:02:36;;;;;;;;;;;;;;;;;;5073472;28;1879;-45
2023/04/28 16:05:04;;;;;;;;;;;;;;;;;;5073353;28;2209;-49
2023/04/28 16:07:36;;;;;;;;;;;;;;;;;;5073649;28;1979;-39
2023/04/28 16:10:04;;;;;;;;;;;;;;;;;;5073314;28;2063;-46
2023/04/28 16:12:34;;;;;;;;;;;;;;;;;;5073336;28;1992;-38
2023/04/28 16:15:02;;;;;;;;;;;;;;;;;;5073408;28;2007;-53
2023/04/28 16:17:29;;;;;;;;;;;;;;;;;;5072853;28;2108;-40
2023/04/28 16:19:57;;;;;;;;;;;;;;;;;;5073167;28;2091;-40
2023/04/28 16:22:24;;;;;;;;;;;;;;;;;;5073152;28;2098;-45
2023/04/28 16:24:52;;;;;;;;;;;;;;;;;;5073359;28;2046;-39
2023/04/28 16:27:19;;;;;;;;;;;;;;;;;;5073261;28;2043;-39
2023/04/28 16:29:46;;;;;;;;;;;;;;;;;;5073082;28;1900;-47
2023/04/28 16:32:14;;;;;;;;;;;;;;;;;;5073263;28;2085;-52
2023/04/28 16:34:41;;;;;;;;;;;;;;;;;;5072784;28;2057;-41
2023/04/28 16:37:09;;;;;;;;;;;;;;;;;;5072943;28;1915;-39
2023/04/28 16:39:37;;;;;;;;;;;;;;;;;;5071938;28;1790;-44
2023/04/28 16:42:05;;;;;;;;;;;;;;;;;;5072852;28;1868;-43
2023/04/28 16:44:33;;;;;;;;;;;;;;;;;;5072699;28;1993;-39
2023/04/28 16:47:00;;;;;;;;;;;;;;;;;;5071476;28;2258;-45
2023/04/28 16:49:31;;;;;;;;;;;;;;;;;;5072572;28;1943;-40
2023/04/28 16:51:59;;;;;;;;;;;;;;;;;;5072739;28;1843;-42
2023/04/28 16:54:27;;;;;;;;;;;;;;;;;;5072499;28;2130;-39
2023/04/28 16:56:55;;;;;;;;;;;;;;;;;;5072499;28;1881;-41
2023/04/28 16:59:23;;;;;;;;;;;;;;;;;;5072578;28;1998;-40
2023/04/28 17:01:51;;;;;;;;;;;;;;;;;;5072562;28;2042;-42
2023/04/28 17:04:18;;;;;;;;;;;;;;;;;;5072454;28;1967;-40
2023/04/28 17:06:46;;;;;;;;;;;;;;;;;;5072305;28;1915;-43
2023/04/28 17:09:13;;;;;;;;;;;;;;;;;;5072379;28;1810;-44
2023/04/28 17:11:40;;;;;;;;;;;;;;;;;;5072229;28;1796;-38
2023/04/28 17:14:07;;;;;;;;;;;;;;;;;;5072292;28;2017;-39
2023/04/28 17:16:34;;;;;;;;;;;;;;;;;;5072202;28;2188;-39